createdAt,value
2022-12-12T00:00:37.875Z,68.90
2022-12-12T00:03:27.560Z,65.93
2022-12-12T00:05:58.412Z,70.65
2022-12-12T00:08:26.986Z,65.43
2022-12-12T00:10:55.205Z,63.95
2022-12-12T00:13:24.148Z,62.50
2022-12-12T00:15:57.470Z,61.72
2022-12-12T00:18:30.462Z,57.53
2022-12-12T00:20:58.784Z,66.32
2022-12-12T00:23:42.010Z,43.50
2022-12-12T00:26:30.904Z,59.65
2022-12-12T00:29:18.902Z,57.33
2022-12-12T00:32:06.537Z,60.95
2022-12-12T00:34:56.741Z,65.65
2022-12-12T00:37:44.306Z,56.40
2022-12-12T00:40:31.953Z,56.22
2022-12-12T00:43:19.649Z,58.05
2022-12-12T00:46:07.587Z,63.38
2022-12-12T00:48:36.114Z,62.40
2022-12-12T00:51:11.722Z,56.25
2022-12-12T00:53:42.701Z,62.42
2022-12-12T00:56:11.888Z,58.78
2022-12-12T00:58:42.622Z,55.50
2022-12-12T01:01:12.511Z,61.55
2022-12-12T01:03:48.811Z,63.72
2022-12-12T01:06:17.343Z,59.00
2022-12-12T01:08:49.261Z,56.45
2022-12-12T01:11:21.290Z,59.60
2022-12-12T01:13:50.606Z,56.45
2022-12-12T01:16:21.858Z,55.95
2022-12-12T01:18:50.600Z,54.70
2022-12-12T01:21:20.076Z,68.43
2022-12-12T01:23:51.807Z,55.53
2022-12-12T01:26:42.010Z,55.95
2022-12-12T01:29:33.870Z,58.95
2022-12-12T01:32:15.274Z,53.50
2022-12-12T01:35:08.194Z,66.18
2022-12-12T01:37:57.941Z,59.03
2022-12-12T01:40:39.310Z,56.03
2022-12-12T01:43:27.362Z,53.22
2022-12-12T01:46:33.594Z,56.90
2022-12-12T01:49:05.035Z,56.05
2022-12-12T01:51:36.186Z,53.42
2022-12-12T01:54:15.295Z,63.28
2022-12-12T01:56:45.394Z,52.03
2022-12-12T01:59:23.565Z,68.22
2022-12-12T02:02:07.133Z,59.00
2022-12-12T02:04:54.959Z,58.50
2022-12-12T02:07:42.711Z,59.53
2022-12-12T02:10:34.888Z,56.35
2022-12-12T02:13:06.447Z,53.05
2022-12-12T02:15:41.275Z,56.83
2022-12-12T02:18:30.978Z,49.20
2022-12-12T02:21:04.584Z,55.00
2022-12-12T02:23:41.214Z,53.25
2022-12-12T02:26:37.438Z,51.05
2022-12-12T02:31:47.625Z,56.90
2022-12-12T02:34:18.362Z,56.60
2022-12-12T02:37:00.469Z,52.17
2022-12-12T02:39:38.828Z,60.45
2022-12-12T02:42:11.539Z,55.72
2022-12-12T02:44:51.925Z,62.90
2022-12-12T02:47:22.389Z,61.25
2022-12-12T02:49:56.009Z,55.27
2022-12-12T02:52:24.420Z,60.05
2022-12-12T02:54:55.100Z,56.08
2022-12-12T02:57:24.965Z,53.97
2022-12-12T03:00:03.267Z,64.25
2022-12-12T03:02:51.430Z,55.40
2022-12-12T03:05:40.543Z,53.50
2022-12-12T03:08:11.741Z,52.20
2022-12-12T03:10:43.060Z,57.60
2022-12-12T03:13:17.392Z,55.03
2022-12-12T03:15:48.697Z,58.72
2022-12-12T03:18:33.262Z,50.88
2022-12-12T03:21:04.516Z,52.83
2022-12-12T03:23:37.006Z,56.97
2022-12-12T03:26:07.325Z,57.20
2022-12-12T03:31:21.240Z,57.90
2022-12-12T03:34:03.005Z,43.05
2022-12-12T03:36:57.622Z,57.85
2022-12-12T03:39:35.149Z,52.30
2022-12-12T03:42:14.069Z,54.72
2022-12-12T03:44:49.410Z,56.13
2022-12-12T03:47:28.192Z,60.03
2022-12-12T03:50:02.808Z,68.03
2022-12-12T03:52:36.200Z,72.88
2022-12-12T03:55:28.275Z,55.53
2022-12-12T03:58:17.348Z,57.65
2022-12-12T04:00:50.312Z,55.72
2022-12-12T04:03:50.679Z,58.38
2022-12-12T04:06:30.413Z,67.22
2022-12-12T04:09:32.586Z,53.67
2022-12-12T04:12:24.521Z,55.63
2022-12-12T04:14:59.965Z,51.10
2022-12-12T04:17:46.917Z,53.67
2022-12-12T04:20:40.291Z,40.25
2022-12-12T04:23:18.199Z,55.42
2022-12-12T04:26:00.417Z,49.78
2022-12-12T04:28:33.502Z,52.20
2022-12-12T04:31:04.654Z,50.78
2022-12-12T04:33:51.088Z,61.35
2022-12-12T04:36:20.942Z,60.25
2022-12-12T04:38:58.760Z,54.78
2022-12-12T04:41:42.092Z,49.28
2022-12-12T04:44:20.826Z,49.75
2022-12-12T04:47:11.060Z,52.28
2022-12-12T04:49:54.625Z,50.10
2022-12-12T04:52:28.406Z,61.75
2022-12-12T04:55:21.109Z,64.25
2022-12-12T04:58:09.073Z,59.70
2022-12-12T05:00:42.335Z,61.58
2022-12-12T05:03:30.654Z,49.67
2022-12-12T05:06:03.161Z,53.45
2022-12-12T05:08:33.421Z,57.17
2022-12-12T05:11:12.298Z,63.03
2022-12-12T05:13:51.508Z,66.18
2022-12-12T05:16:41.206Z,63.30
2022-12-12T05:19:28.979Z,53.93
2022-12-12T05:22:00.730Z,57.97
2022-12-12T05:24:32.997Z,58.13
2022-12-12T05:27:01.844Z,60.42
2022-12-12T05:29:32.450Z,57.78
2022-12-12T05:32:09.843Z,57.67
2022-12-12T05:34:42.021Z,53.38
2022-12-12T05:37:13.207Z,58.08
2022-12-12T05:39:42.034Z,54.80
2022-12-12T05:42:18.937Z,59.75
2022-12-12T05:45:05.519Z,58.35
2022-12-12T05:50:21.139Z,57.92
2022-12-12T05:53:08.694Z,57.47
2022-12-12T05:55:41.477Z,53.28
2022-12-12T05:58:12.740Z,50.58
2022-12-12T06:00:43.348Z,55.10
2022-12-12T06:03:27.903Z,62.97
2022-12-12T06:06:17.928Z,60.33
2022-12-12T06:09:05.734Z,60.90
2022-12-12T06:11:53.457Z,59.53
2022-12-12T06:14:41.288Z,53.50
2022-12-12T06:17:33.536Z,49.50
2022-12-12T06:20:15.641Z,53.67
2022-12-12T06:23:03.448Z,48.72
2022-12-12T06:25:51.374Z,56.63
2022-12-12T06:28:41.589Z,63.38
2022-12-12T06:31:32.546Z,56.28
2022-12-12T06:34:20.195Z,61.72
2022-12-12T06:36:49.809Z,71.43
2022-12-12T06:39:18.479Z,64.53
2022-12-12T06:41:47.069Z,63.45
2022-12-12T06:44:15.697Z,54.53
2022-12-12T06:46:46.765Z,68.03
2022-12-12T06:49:15.379Z,63.50
2022-12-12T06:51:45.052Z,58.97
2022-12-12T06:54:14.560Z,65.75
2022-12-12T06:56:48.225Z,56.53
2022-12-12T06:59:36.487Z,65.75
2022-12-12T07:02:21.169Z,71.43
2022-12-12T07:05:11.358Z,63.95
2022-12-12T07:08:02.636Z,67.00
2022-12-12T07:10:33.151Z,60.28
2022-12-12T07:13:03.954Z,66.35
2022-12-12T07:15:44.723Z,63.60
2022-12-12T07:18:18.645Z,67.60
2022-12-12T07:21:08.225Z,68.32
2022-12-12T07:23:37.951Z,70.15
2022-12-12T07:26:12.547Z,65.63
2022-12-12T07:28:42.521Z,62.97
2022-12-12T07:31:26.483Z,67.28
2022-12-12T07:34:01.262Z,63.83
2022-12-12T07:36:34.925Z,64.03
2022-12-12T07:39:03.662Z,65.47
2022-12-12T07:41:54.096Z,65.32
2022-12-12T07:44:42.178Z,67.47
2022-12-12T07:47:17.110Z,69.90
2022-12-12T07:49:55.365Z,59.55
2022-12-12T07:52:27.226Z,63.00
2022-12-12T07:54:56.126Z,62.42
2022-12-12T07:57:24.666Z,60.97
2022-12-12T07:59:56.388Z,57.55
2022-12-12T08:02:37.464Z,64.57
2022-12-12T08:05:25.083Z,59.30
2022-12-12T08:08:15.224Z,56.85
2022-12-12T08:11:05.932Z,61.45
2022-12-12T08:13:38.740Z,59.65
2022-12-12T08:16:15.233Z,61.63
2022-12-12T08:18:46.245Z,56.28
2022-12-12T08:21:25.209Z,58.75
2022-12-12T08:24:15.099Z,57.58
2022-12-12T08:27:02.792Z,58.58
2022-12-12T08:29:52.607Z,60.90
2022-12-12T08:32:40.985Z,56.90
2022-12-12T08:35:13.183Z,69.43
2022-12-12T08:38:01.052Z,54.85
2022-12-12T08:40:48.776Z,90.72
2022-12-12T08:43:37.610Z,45.55
2022-12-12T08:46:11.101Z,41.47
2022-12-12T08:48:45.113Z,43.45
2022-12-12T08:51:18.102Z,48.55
2022-12-12T08:53:49.657Z,47.70
2022-12-12T08:56:19.301Z,37.20
2022-12-12T08:58:47.950Z,37.22
2022-12-12T09:01:21.724Z,38.33
2022-12-12T09:03:51.397Z,37.50
2022-12-12T09:06:33.686Z,24.15
2022-12-12T09:09:17.939Z,33.35
2022-12-12T09:12:05.648Z,40.25
2022-12-12T09:14:53.193Z,44.83
2022-12-12T09:17:24.793Z,36.17
2022-12-12T09:20:07.547Z,34.33
2022-12-12T09:22:57.740Z,39.35
2022-12-12T09:25:45.806Z,38.72
2022-12-12T09:28:33.544Z,38.60
2022-12-12T09:31:21.532Z,34.08
2022-12-12T09:34:09.883Z,39.13
2022-12-12T09:36:55.223Z,41.60
2022-12-12T09:39:43.490Z,35.22
2022-12-12T09:42:18.738Z,40.55
2022-12-12T09:44:48.371Z,45.53
2022-12-12T09:47:20.133Z,39.40
2022-12-12T09:49:52.010Z,57.50
2022-12-12T09:52:34.467Z,45.80
2022-12-12T09:55:24.528Z,34.90
2022-12-12T09:57:56.075Z,35.33
2022-12-12T10:00:24.853Z,41.10
2022-12-12T10:03:10.834Z,36.95
2022-12-12T10:05:48.110Z,35.42
2022-12-12T10:08:25.289Z,42.47
2022-12-12T10:10:59.314Z,35.75
2022-12-12T10:13:30.943Z,36.17
2022-12-12T10:16:08.847Z,43.13
2022-12-12T10:18:48.269Z,39.05
2022-12-12T10:21:30.204Z,32.83
2022-12-12T10:24:08.879Z,37.13
2022-12-12T10:26:58.859Z,36.95
2022-12-12T10:29:46.601Z,33.88
2022-12-12T10:32:38.459Z,35.05
2022-12-12T10:35:26.499Z,33.38
2022-12-12T10:37:56.134Z,37.92
2022-12-12T10:40:24.360Z,33.65
2022-12-12T10:42:58.454Z,37.22
2022-12-12T10:45:32.767Z,37.70
2022-12-12T10:48:01.400Z,42.70
2022-12-12T10:50:29.821Z,42.08
2022-12-12T10:53:09.859Z,38.25
2022-12-12T10:55:57.575Z,51.08
2022-12-12T10:58:43.050Z,34.08
2022-12-12T11:01:45.005Z,40.22
2022-12-12T11:04:22.741Z,39.25
2022-12-12T11:07:17.634Z,32.65
2022-12-12T11:09:46.986Z,32.30
2022-12-12T11:12:21.019Z,35.90
2022-12-12T11:14:53.550Z,38.08
2022-12-12T11:17:31.928Z,39.35
2022-12-12T11:20:01.304Z,39.50
2022-12-12T11:22:33.901Z,35.90
2022-12-12T11:25:28.361Z,34.72
2022-12-12T11:28:21.095Z,34.35
2022-12-12T11:31:10.970Z,33.03
2022-12-12T11:34:00.420Z,30.25
2022-12-12T11:36:38.467Z,27.27
2022-12-12T11:39:25.720Z,33.45
2022-12-12T11:42:18.107Z,31.67
2022-12-12T11:44:58.563Z,30.17
2022-12-12T11:47:49.192Z,30.88
2022-12-12T11:50:25.301Z,31.25
2022-12-12T11:53:04.633Z,28.58
2022-12-12T11:55:51.079Z,31.20
2022-12-12T11:58:49.391Z,34.08
2022-12-12T12:01:28.366Z,32.22
2022-12-12T12:04:17.216Z,28.45
2022-12-12T12:06:47.231Z,32.38
2022-12-12T12:09:29.863Z,29.75
2022-12-12T12:11:57.941Z,25.17
2022-12-12T12:14:27.316Z,33.35
2022-12-12T12:17:19.715Z,30.63
2022-12-12T12:20:06.616Z,26.85
2022-12-12T12:22:53.891Z,30.20
2022-12-12T12:25:27.020Z,71.90
2022-12-12T12:27:58.092Z,33.88
2022-12-12T12:30:28.105Z,24.23
2022-12-12T12:33:14.597Z,30.27
2022-12-12T12:36:01.648Z,29.48
2022-12-12T12:38:53.661Z,27.73
2022-12-12T12:41:34.302Z,30.27
2022-12-12T12:44:19.213Z,27.08
2022-12-12T12:47:05.508Z,30.90
2022-12-12T12:49:40.240Z,23.45
2022-12-12T12:52:16.261Z,26.77
2022-12-12T12:54:48.850Z,30.15
2022-12-12T12:57:23.338Z,26.75
2022-12-12T12:59:54.352Z,24.83
2022-12-12T13:02:34.620Z,26.60
2022-12-12T13:05:26.741Z,25.13
2022-12-12T13:07:54.990Z,27.98
2022-12-12T13:10:25.541Z,26.20
2022-12-12T13:13:10.030Z,26.85
2022-12-12T13:15:44.738Z,23.92
2022-12-12T13:18:18.421Z,29.25
2022-12-12T13:20:50.721Z,27.67
2022-12-12T13:23:26.881Z,24.60
2022-12-12T13:26:07.306Z,22.55
2022-12-12T13:28:44.396Z,26.90
2022-12-12T13:31:15.514Z,28.27
2022-12-12T13:33:56.089Z,25.77
2022-12-12T13:36:46.739Z,32.13
2022-12-12T13:39:35.586Z,31.52
2022-12-12T13:42:11.267Z,31.83
2022-12-12T13:45:17.689Z,27.25
2022-12-12T13:47:55.289Z,27.45
2022-12-12T13:50:24.553Z,31.38
2022-12-12T13:53:17.032Z,28.50
2022-12-12T13:55:47.894Z,24.67
2022-12-12T13:58:32.437Z,32.03
2022-12-12T14:01:23.521Z,28.02
2022-12-12T14:03:51.803Z,37.67
2022-12-12T14:06:20.873Z,44.67
2022-12-12T14:08:54.811Z,31.48
2022-12-12T14:11:33.101Z,25.60
2022-12-12T14:14:08.496Z,28.48
2022-12-12T14:16:37.525Z,27.10
2022-12-12T14:19:07.689Z,32.28
2022-12-12T14:21:40.939Z,26.88
2022-12-12T14:24:28.022Z,26.50
2022-12-12T14:26:57.476Z,35.80
2022-12-12T14:29:29.268Z,34.38
2022-12-12T14:31:57.383Z,40.38
2022-12-12T14:34:40.244Z,30.55
2022-12-12T14:37:19.182Z,31.02
2022-12-12T14:39:50.645Z,25.67
2022-12-12T14:43:19.778Z,27.02
2022-12-12T14:45:35.703Z,29.08
2022-12-12T14:48:37.770Z,28.10
2022-12-12T14:51:25.888Z,29.33
2022-12-12T14:53:59.728Z,27.17
2022-12-12T14:56:31.198Z,31.52
2022-12-12T14:59:32.422Z,31.02
2022-12-12T15:02:27.395Z,31.38
2022-12-12T15:05:04.860Z,30.20
2022-12-12T15:07:39.694Z,25.25
2022-12-12T15:10:25.108Z,38.78
2022-12-12T15:12:53.425Z,26.15
2022-12-12T15:15:26.444Z,30.02
2022-12-12T15:17:56.153Z,28.45
2022-12-12T15:20:27.095Z,35.10
2022-12-12T15:23:03.774Z,28.67
2022-12-12T15:25:44.343Z,27.83
2022-12-12T15:28:16.746Z,24.48
2022-12-12T15:30:51.247Z,27.65
2022-12-12T15:33:39.371Z,23.80
2022-12-12T15:36:25.911Z,23.67
2022-12-12T15:39:15.570Z,28.63
2022-12-12T15:41:50.698Z,24.75
2022-12-12T15:44:21.786Z,28.13
2022-12-12T15:47:06.643Z,27.30
2022-12-12T15:49:44.475Z,33.00
2022-12-12T15:52:26.464Z,31.08
2022-12-12T15:54:57.176Z,33.38
2022-12-12T15:57:26.949Z,27.83
2022-12-12T15:59:57.157Z,33.60
2022-12-12T16:02:28.931Z,31.42
2022-12-12T16:05:31.455Z,26.98
2022-12-12T16:08:24.128Z,30.63
2022-12-12T16:10:58.239Z,34.78
2022-12-12T16:13:36.773Z,28.13
2022-12-12T16:16:24.006Z,48.95
2022-12-12T16:18:52.307Z,82.07
2022-12-12T16:21:20.686Z,69.75
2022-12-12T16:24:09.712Z,49.00
2022-12-12T16:26:51.184Z,34.80
2022-12-12T16:29:27.402Z,44.35
2022-12-12T16:31:59.243Z,39.90
2022-12-12T16:34:30.466Z,33.80
2022-12-12T16:37:02.290Z,27.02
2022-12-12T16:39:33.248Z,29.73
2022-12-12T16:42:02.560Z,36.25
2022-12-12T16:44:36.188Z,36.97
2022-12-12T16:47:12.093Z,49.05
2022-12-12T16:49:43.282Z,43.90
2022-12-12T16:52:16.678Z,30.17
2022-12-12T16:54:52.565Z,31.33
2022-12-12T16:57:41.174Z,32.90
2022-12-12T17:00:27.048Z,44.22
2022-12-12T17:03:15.422Z,39.90
2022-12-12T17:05:48.121Z,42.13
2022-12-12T17:08:19.652Z,46.47
2022-12-12T17:10:49.125Z,39.20
2022-12-12T17:13:23.353Z,42.88
2022-12-12T17:16:11.035Z,43.38
2022-12-12T17:18:42.432Z,39.40
2022-12-12T17:21:11.167Z,39.80
2022-12-12T17:23:42.157Z,41.40
2022-12-12T17:26:11.686Z,41.15
2022-12-12T17:28:40.543Z,39.38
2022-12-12T17:31:09.967Z,37.28
2022-12-12T17:33:50.545Z,39.10
2022-12-12T17:36:38.846Z,39.70
2022-12-12T17:39:15.022Z,47.22
2022-12-12T17:42:02.774Z,42.60
2022-12-12T17:44:50.420Z,40.67
2022-12-12T17:47:36.855Z,47.05
2022-12-12T17:50:12.428Z,51.50
2022-12-12T17:52:47.083Z,54.05
2022-12-12T17:55:53.432Z,53.95
2022-12-12T17:58:07.509Z,49.45
2022-12-12T18:00:39.947Z,51.00
2022-12-12T18:03:27.706Z,42.50
2022-12-12T18:05:55.923Z,56.75
2022-12-12T18:08:27.201Z,45.17
2022-12-12T18:10:55.965Z,49.58
2022-12-12T18:13:24.521Z,49.00
2022-12-12T18:15:55.049Z,47.83
2022-12-12T18:18:24.180Z,48.67
2022-12-12T18:20:55.302Z,51.33
2022-12-12T18:23:24.794Z,51.90
2022-12-12T18:25:54.158Z,47.20
2022-12-12T18:28:24.427Z,52.05
2022-12-12T18:30:56.706Z,52.83
2022-12-12T18:33:44.237Z,47.95
2022-12-12T18:36:32.636Z,54.22
2022-12-12T18:39:20.272Z,46.80
2022-12-12T18:42:11.821Z,54.15
2022-12-12T18:44:42.977Z,52.25
2022-12-12T18:47:13.843Z,58.88
2022-12-12T18:49:42.565Z,60.83
2022-12-12T18:52:11.215Z,56.58
2022-12-12T18:54:39.862Z,53.97
2022-12-12T18:57:08.805Z,55.45
2022-12-12T18:59:39.814Z,55.30
2022-12-12T19:02:08.889Z,52.13
2022-12-12T19:04:42.046Z,50.67
2022-12-12T19:07:29.819Z,50.25
2022-12-12T19:10:17.516Z,47.42
2022-12-12T19:13:07.591Z,45.72
2022-12-12T19:15:55.332Z,57.03
2022-12-12T19:18:45.677Z,61.97
2022-12-12T19:21:15.897Z,53.08
2022-12-12T19:23:48.549Z,48.78
2022-12-12T19:26:25.208Z,56.30
2022-12-12T19:29:17.235Z,49.75
2022-12-12T19:34:54.658Z,53.67
2022-12-12T19:37:42.289Z,56.88
2022-12-12T19:40:31.441Z,68.32
2022-12-12T19:43:21.364Z,56.83
2022-12-12T19:46:15.555Z,47.67
2022-12-12T19:49:04.560Z,44.63
2022-12-12T19:51:38.522Z,50.67
2022-12-12T19:54:21.337Z,47.08
2022-12-12T19:56:51.382Z,48.92
2022-12-12T19:59:20.408Z,49.88
2022-12-12T20:01:49.621Z,45.85
2022-12-12T20:04:25.541Z,42.72
2022-12-12T20:06:53.915Z,51.08
2022-12-12T20:09:25.672Z,45.20
2022-12-12T20:12:13.275Z,51.08
2022-12-12T20:17:36.710Z,36.80
2022-12-12T20:20:25.306Z,39.53
2022-12-12T20:23:15.468Z,49.08
2022-12-12T20:26:04.809Z,51.65
2022-12-12T20:28:53.503Z,49.92
2022-12-12T20:31:40.855Z,47.55
2022-12-12T20:34:25.460Z,46.08
2022-12-12T20:37:18.294Z,41.25
2022-12-12T20:40:04.990Z,48.17
2022-12-12T20:42:58.584Z,41.08
2022-12-12T20:45:37.416Z,41.72
2022-12-12T20:48:08.716Z,49.85
2022-12-12T20:50:37.156Z,46.03
2022-12-12T20:53:09.366Z,54.92
2022-12-12T20:55:56.946Z,43.38
2022-12-12T20:58:44.565Z,55.50
2022-12-12T21:01:33.212Z,46.13
2022-12-12T21:04:21.033Z,43.85
2022-12-12T21:07:09.516Z,47.75
2022-12-12T21:09:59.175Z,43.47
2022-12-12T21:12:46.783Z,51.22
2022-12-12T21:15:26.643Z,48.83
2022-12-12T21:17:55.504Z,45.65
2022-12-12T21:20:26.163Z,48.20
2022-12-12T21:22:55.984Z,51.55
2022-12-12T21:25:24.834Z,47.20
2022-12-12T21:27:53.510Z,51.08
2022-12-12T21:30:22.582Z,42.35
2022-12-12T21:33:05.048Z,47.78
2022-12-12T21:35:36.168Z,45.00
2022-12-12T21:38:05.455Z,45.80
2022-12-12T21:40:53.209Z,41.42
2022-12-12T21:43:41.077Z,44.78
2022-12-12T21:46:31.591Z,53.80
2022-12-12T21:49:30.459Z,41.45
2022-12-12T21:52:18.018Z,42.65
2022-12-12T21:54:56.143Z,41.30
2022-12-12T21:57:43.078Z,45.10
2022-12-12T22:00:26.126Z,43.45
2022-12-12T22:03:12.789Z,44.53
2022-12-12T22:05:44.802Z,42.53
2022-12-12T22:08:13.281Z,50.35
2022-12-12T22:10:44.607Z,40.08
2022-12-12T22:13:13.368Z,45.58
2022-12-12T22:15:42.076Z,44.10
2022-12-12T22:18:10.719Z,41.45
2022-12-12T22:20:39.355Z,50.00
2022-12-12T22:23:09.305Z,51.85
2022-12-12T22:25:37.874Z,46.67
2022-12-12T22:28:09.327Z,47.38
2022-12-12T22:30:38.365Z,46.90
2022-12-12T22:33:10.986Z,34.10
2022-12-12T22:36:05.526Z,45.92
2022-12-12T22:38:54.505Z,40.90
2022-12-12T22:41:31.893Z,48.60
2022-12-12T22:44:22.550Z,56.38
2022-12-12T22:47:09.200Z,43.80
2022-12-12T22:49:56.897Z,52.63
2022-12-12T22:52:44.720Z,38.60
2022-12-12T22:55:34.448Z,43.70
2022-12-12T22:58:03.142Z,43.33
2022-12-12T23:00:32.863Z,44.63
2022-12-12T23:03:20.466Z,38.92
2022-12-12T23:05:48.882Z,41.15
2022-12-12T23:08:36.581Z,42.50
2022-12-12T23:11:25.120Z,47.03
2022-12-12T23:14:16.793Z,48.30
2022-12-12T23:16:58.794Z,44.63
2022-12-12T23:19:28.779Z,47.90
2022-12-12T23:22:00.239Z,41.78
2022-12-12T23:24:32.789Z,45.73
2022-12-12T23:27:01.342Z,45.92
2022-12-12T23:29:51.294Z,45.35
2022-12-12T23:32:39.079Z,43.90
2022-12-12T23:35:29.286Z,41.70
2022-12-12T23:38:19.817Z,42.20
2022-12-12T23:40:48.525Z,39.03
2022-12-12T23:43:21.294Z,40.90
2022-12-12T23:45:49.664Z,46.75
2022-12-12T23:48:20.353Z,42.25
2022-12-12T23:50:49.181Z,43.63
2022-12-12T23:53:17.505Z,45.88
2022-12-12T23:55:58.448Z,40.05
2022-12-12T23:58:46.113Z,47.78
